Time;durP1;ratioP1;P1;durP2;ratioP2;P2;SDS_P1;SDS_P2;PMS_P1;PMS_P2;Temp;Humidity;BMP_temperature;BMP_pressure;BME280_temperature;BME280_humidity;BME280_pressure;Samples;Min_cycle;Max_cycle;Signal;HPM_P1;HPM_P2
2023/02/08 00:01:12;;;;;;;22.47;15.17;;;6.10;1.00;;;;;;5034490;28;20068;-58
2023/02/08 00:03:37;;;;;;;22.00;15.00;;;6.00;1.00;;;;;;5034202;28;20455;-58
2023/02/08 00:06:04;;;;;;;21.73;14.80;;;6.00;1.00;;;;;;5034123;28;20045;-59
2023/02/08 00:08:31;;;;;;;18.77;14.10;;;6.10;1.00;;;;;;5034325;28;20479;-59
2023/02/08 00:10:56;;;;;;;25.40;16.23;;;6.00;1.00;;;;;;5032675;28;20022;-59
2023/02/08 00:13:22;;;;;;;21.83;15.40;;;6.00;1.00;;;;;;5034802;28;20044;-59
2023/02/08 00:15:50;;;;;;;24.70;15.77;;;5.90;1.00;;;;;;5034138;28;20022;-59
2023/02/08 00:18:16;;;;;;;23.17;15.87;;;6.00;1.00;;;;;;5034245;28;20048;-58
2023/02/08 00:20:42;;;;;;;20.97;14.70;;;6.00;1.00;;;;;;5033954;28;20475;-58
2023/02/08 00:23:08;;;;;;;25.27;15.13;;;6.00;1.00;;;;;;5035590;28;20025;-59
2023/02/08 00:25:34;;;;;;;26.43;16.90;;;6.00;1.00;;;;;;5046191;28;20030;-59
2023/02/08 00:28:00;;;;;;;21.30;15.13;;;6.00;1.00;;;;;;5033880;28;20508;-59
2023/02/08 00:30:25;;;;;;;22.20;15.83;;;5.90;1.00;;;;;;5033832;28;20026;-59
2023/02/08 00:32:51;;;;;;;20.60;15.00;;;6.00;1.00;;;;;;5033826;28;20026;-59
2023/02/08 00:35:17;;;;;;;23.17;15.03;;;6.00;1.00;;;;;;5033855;28;20105;-59
2023/02/08 00:37:42;;;;;;;20.67;15.17;;;6.00;1.00;;;;;;5033809;28;20049;-58
2023/02/08 00:40:09;;;;;;;23.17;15.17;;;6.00;1.00;;;;;;5033675;28;20095;-59
2023/02/08 00:42:35;;;;;;;21.50;14.13;;;6.00;1.00;;;;;;5033674;28;20412;-59
2023/02/08 00:45:00;;;;;;;25.67;16.00;;;6.00;1.00;;;;;;5032219;28;20117;-59
2023/02/08 00:47:26;;;;;;;24.23;15.93;;;5.90;1.00;;;;;;5033380;28;20037;-58
2023/02/08 00:49:52;;;;;;;21.10;13.93;;;5.90;1.00;;;;;;5033166;28;20022;-57
2023/02/08 00:52:18;;;;;;;22.60;15.70;;;5.90;1.00;;;;;;5033657;28;20029;-58
2023/02/08 00:54:43;;;;;;;23.30;15.73;;;5.90;1.00;;;;;;5033448;28;20028;-59
2023/02/08 00:57:09;;;;;;;23.17;15.47;;;5.90;1.00;;;;;;5033117;28;20026;-57
2023/02/08 00:59:34;;;;;;;23.43;15.20;;;5.90;1.00;;;;;;5033521;28;20128;-59
2023/02/08 01:02:00;;;;;;;26.87;16.77;;;5.90;1.00;;;;;;5033221;28;20044;-59
2023/02/08 01:04:26;;;;;;;25.20;16.03;;;5.70;1.00;;;;;;5033162;28;20095;-59
2023/02/08 01:06:51;;;;;;;23.70;15.50;;;5.80;1.00;;;;;;5033346;28;20025;-59
2023/02/08 01:09:17;;;;;;;23.57;15.17;;;5.80;1.00;;;;;;5032905;28;20412;-59
2023/02/08 01:11:43;;;;;;;22.93;16.13;;;5.80;1.00;;;;;;5033177;28;20068;-59
2023/02/08 01:14:08;;;;;;;21.40;14.97;;;5.80;1.00;;;;;;5032912;28;20494;-59
2023/02/08 01:16:34;;;;;;;21.23;15.40;;;5.90;1.00;;;;;;5033314;28;20028;-58
2023/02/08 01:19:02;;;;;;;25.17;15.93;;;5.80;1.00;;;;;;5025057;28;20478;-58
2023/02/08 01:21:36;;;;;;;22.77;15.20;;;5.80;1.00;;;;;;5019059;28;20067;-59
2023/02/08 01:24:02;;;;;;;21.33;14.75;;;5.80;1.00;;;;;;5041871;28;20025;-57
2023/02/08 01:26:29;;;;;;;23.20;15.37;;;5.80;1.00;;;;;;5037424;28;20020;-58
2023/02/08 01:28:55;;;;;;;20.37;14.73;;;5.80;1.00;;;;;;5032648;28;20033;-58
2023/02/08 01:31:23;;;;;;;22.17;15.17;;;5.80;1.00;;;;;;5032866;28;20025;-58
2023/02/08 01:33:50;;;;;;;24.07;15.90;;;5.80;1.00;;;;;;5031557;28;20364;-58
2023/02/08 01:36:16;;;;;;;22.17;14.93;;;5.80;1.00;;;;;;5032740;28;20093;-58
2023/02/08 01:38:43;;;;;;;22.63;14.80;;;5.90;1.00;;;;;;5032775;28;20352;-58
2023/02/08 01:41:34;;;;;;;24.33;15.37;;;5.90;1.00;;;;;;5032465;28;20053;-58
2023/02/08 01:44:11;;;;;;;26.60;16.30;;;5.80;1.00;;;;;;5032366;28;20037;-58
2023/02/08 01:46:39;;;;;;;21.70;15.80;;;5.80;1.00;;;;;;5032462;28;20033;-59
2023/02/08 01:49:16;;;;;;;25.90;16.80;;;5.70;1.00;;;;;;5032060;28;20044;-58
2023/02/08 01:51:50;;;;;;;24.07;16.23;;;5.80;1.00;;;;;;5031666;28;20026;-58
2023/02/08 01:54:18;;;;;;;25.10;17.03;;;5.60;1.00;;;;;;5032632;28;20163;-58
2023/02/08 01:56:46;;;;;;;27.97;16.80;;;5.70;1.00;;;;;;5032286;28;20025;-58
2023/02/08 01:59:25;;;;;;;21.27;16.77;;;5.60;1.00;;;;;;5022210;28;20029;-58
2023/02/08 02:01:53;;;;;;;29.40;17.97;;;5.50;1.00;;;;;;5052024;28;20021;-59
2023/02/08 02:04:19;;;;;;;24.90;16.77;;;5.60;1.00;;;;;;5042503;28;20439;-59
2023/02/08 02:06:55;;;;;;;25.20;17.60;;;5.60;1.00;;;;;;5027815;28;20036;-59
2023/02/08 02:09:30;;;;;;;23.33;17.37;;;5.60;1.00;;;;;;5043074;28;20072;-59
2023/02/08 02:11:56;;;;;;;;;;;5.60;1.00;;;;;;5041223;28;20067;-58
2023/02/08 02:14:22;;;;;;;23.17;17.27;;;5.60;1.00;;;;;;5036516;28;19905;-58
2023/02/08 02:16:48;;;;;;;26.77;17.30;;;5.60;1.00;;;;;;5043653;28;20355;-59
2023/02/08 02:19:52;;;;;;;28.07;18.17;;;5.50;1.00;;;;;;5039103;28;20104;-58
2023/02/08 02:22:45;;;;;;;26.10;18.10;;;5.50;1.00;;;;;;5032549;28;20075;-58
2023/02/08 02:25:48;;;;;;;24.70;18.03;;;5.50;1.00;;;;;;5031306;28;20033;-58
2023/02/08 02:28:33;;;;;;;23.87;17.70;;;5.60;1.00;;;;;;5042421;28;20142;-58
2023/02/08 02:31:10;;;;;;;17.77;12.77;;;5.50;1.00;;;;;;5031952;28;20017;-58
2023/02/08 02:33:39;;;;;;;26.00;16.90;;;5.50;1.00;;;;;;5031722;28;20113;-59
2023/02/08 02:36:31;;;;;;;25.90;17.23;;;5.60;1.00;;;;;;5031449;28;20105;-59
2023/02/08 02:39:09;;;;;;;25.87;16.13;;;5.50;1.00;;;;;;5031860;28;20033;-58
2023/02/08 02:45:20;;;;;;;27.60;17.07;;;5.60;1.00;;;;;;5040800;28;20450;-59
2023/02/08 02:48:09;;;;;;;23.53;14.90;;;5.50;1.00;;;;;;5034323;28;20075;-58
2023/02/08 02:51:01;;;;;;;25.33;16.53;;;5.60;1.00;;;;;;5031738;28;20048;-58
2023/02/08 02:53:41;;;;;;;23.27;16.23;;;5.60;1.00;;;;;;5020285;28;20415;-59
2023/02/08 02:56:22;;;;;;;24.03;15.57;;;5.60;1.00;;;;;;5031503;28;20034;-58
2023/02/08 02:58:49;;;;;;;23.17;15.97;;;5.50;1.00;;;;;;5031643;28;20022;-58
2023/02/08 03:01:24;;;;;;;22.50;15.53;;;5.50;1.00;;;;;;5031408;28;20037;-59
2023/02/08 03:03:51;;;;;;;25.47;16.63;;;5.50;1.00;;;;;;5031213;28;20122;-58
2023/02/08 03:06:40;;;;;;;22.50;15.73;;;5.50;1.00;;;;;;5030097;28;20485;-58
2023/02/08 03:09:39;;;;;;;21.10;16.10;;;5.50;1.00;;;;;;5031675;28;20076;-59
2023/02/08 03:12:39;;;;;;;23.67;16.17;;;5.50;1.00;;;;;;5017909;28;20383;-58
2023/02/08 03:15:26;;;;;;;24.00;16.27;;;5.50;1.00;;;;;;5031271;28;20029;-58
2023/02/08 03:18:19;;;;;;;27.13;17.50;;;5.40;1.00;;;;;;5029929;28;20037;-59
2023/02/08 03:20:55;;;;;;;22.17;16.70;;;5.40;1.00;;;;;;5017511;28;20447;-58
2023/02/08 03:23:30;;;;;;;23.93;16.10;;;5.40;1.00;;;;;;5027655;28;20173;-58
2023/02/08 03:26:07;;;;;;;24.25;16.27;;;5.30;1.00;;;;;;5034889;28;20128;-59
2023/02/08 03:29:18;;;;;;;23.17;16.70;;;5.30;1.00;;;;;;5034917;28;20080;-59
2023/02/08 03:31:46;;;;;;;22.30;16.60;;;5.40;1.00;;;;;;5034905;28;20021;-58
2023/02/08 03:34:32;;;;;;;25.60;15.87;;;5.40;1.00;;;;;;5034976;28;20036;-58
2023/02/08 03:37:10;;;;;;;21.03;16.03;;;5.40;1.00;;;;;;5035039;28;20104;-58
2023/02/08 03:39:38;;;;;;;22.07;16.23;;;5.30;1.00;;;;;;5034741;28;20049;-59
2023/02/08 03:42:11;;;;;;;21.37;15.60;;;5.40;1.00;;;;;;5034542;28;20483;-59
2023/02/08 03:44:42;;;;;;;21.87;16.40;;;5.40;1.00;;;;;;5032857;28;20538;-59
2023/02/08 03:47:22;;;;;;;22.27;17.00;;;5.40;1.00;;;;;;5034495;28;20029;-59
2023/02/08 03:49:51;;;;;;;25.77;17.53;;;5.40;1.00;;;;;;5033603;28;20080;-58
2023/02/08 03:52:17;;;;;;;26.43;17.50;;;5.30;1.00;;;;;;5034318;28;20485;-57
2023/02/08 03:54:57;;;;;;;27.63;17.87;;;5.30;1.00;;;;;;5034451;28;20017;-59
2023/02/08 03:57:27;;;;;;;27.67;18.03;;;5.30;1.00;;;;;;5034463;28;20071;-58
2023/02/08 04:00:04;;;;;;;27.93;18.50;;;5.40;1.00;;;;;;5034219;28;20524;-59
2023/02/08 04:02:36;;;;;;;25.73;18.57;;;5.40;1.00;;;;;;5034295;28;20112;-58
2023/02/08 04:05:03;;;;;;;26.60;18.00;;;5.20;1.00;;;;;;5025721;28;20136;-58
2023/02/08 04:07:28;;;;;;;27.93;17.07;;;5.20;1.00;;;;;;5028920;28;20025;-57
2023/02/08 04:09:54;;;;;;;29.97;18.50;;;5.30;1.00;;;;;;5034347;28;20140;-58
2023/02/08 04:12:20;;;;;;;27.27;17.67;;;5.30;1.00;;;;;;5034186;28;20029;-58
2023/02/08 04:14:45;;;;;;;30.10;19.33;;;5.10;1.00;;;;;;5033961;28;20029;-58
2023/02/08 04:17:11;;;;;;;28.27;19.03;;;5.20;1.00;;;;;;5034197;28;20025;-59
2023/02/08 04:19:37;;;;;;;28.90;18.50;;;5.10;1.00;;;;;;5046478;28;20108;-58
2023/02/08 04:22:02;;;;;;;23.53;18.00;;;5.20;1.00;;;;;;5035262;28;20049;-58
2023/02/08 04:24:28;;;;;;;28.80;19.03;;;5.20;1.00;;;;;;5033997;28;20037;-58
2023/02/08 04:26:53;;;;;;;25.10;17.83;;;5.00;1.00;;;;;;5033709;28;20060;-59
2023/02/08 04:29:19;;;;;;;31.03;19.70;;;5.20;1.00;;;;;;5033678;28;20041;-58
2023/02/08 04:31:45;;;;;;;25.80;18.23;;;5.20;1.00;;;;;;5033838;28;20022;-59
2023/02/08 04:34:10;;;;;;;27.07;17.13;;;5.10;1.00;;;;;;5033673;28;20368;-58
2023/02/08 04:36:36;;;;;;;25.63;18.50;;;5.10;1.00;;;;;;5032817;28;20152;-59
2023/02/08 04:39:02;;;;;;;24.47;18.27;;;5.10;1.00;;;;;;5033495;28;20360;-58
2023/02/08 04:41:27;;;;;;;25.17;17.83;;;5.00;1.00;;;;;;5033808;28;20032;-58
2023/02/08 04:43:53;;;;;;;27.23;18.73;;;5.00;1.00;;;;;;5033313;28;20403;-59
2023/02/08 04:46:18;;;;;;;26.40;18.83;;;5.00;1.00;;;;;;5033365;28;20028;-59
2023/02/08 04:48:44;;;;;;;25.30;17.97;;;5.10;1.00;;;;;;5033455;28;20069;-59
2023/02/08 04:51:10;;;;;;;23.93;17.70;;;5.10;1.00;;;;;;5033180;28;20378;-59
2023/02/08 04:53:35;;;;;;;28.37;18.00;;;4.90;1.00;;;;;;5033668;28;20371;-59
2023/02/08 04:56:01;;;;;;;24.57;17.87;;;4.90;1.00;;;;;;5033089;28;20541;-59
2023/02/08 04:58:26;;;;;;;22.17;17.23;;;5.00;1.00;;;;;;5033391;28;20068;-59
2023/02/08 05:00:52;;;;;;;31.27;17.93;;;5.00;1.00;;;;;;5033041;28;20181;-59
2023/02/08 05:03:18;;;;;;;24.90;18.87;;;5.00;1.00;;;;;;5033144;28;20046;-59
2023/02/08 05:05:43;;;;;;;28.77;19.23;;;5.00;1.00;;;;;;5033116;28;20026;-58
2023/02/08 05:08:09;;;;;;;24.47;17.33;;;5.00;1.00;;;;;;5031695;28;20432;-59
2023/02/08 05:10:34;;;;;;;26.40;18.03;;;5.00;1.00;;;;;;5033048;28;20087;-59
2023/02/08 05:13:00;;;;;;;28.97;18.57;;;5.00;1.00;;;;;;5033108;28;20467;-59
2023/02/08 05:15:26;;;;;;;25.53;18.00;;;5.00;1.00;;;;;;5026268;28;20022;-59
2023/02/08 05:17:51;;;;;;;26.90;17.30;;;5.00;1.00;;;;;;5026358;28;20026;-59
2023/02/08 05:20:17;;;;;;;23.87;17.53;;;5.00;1.00;;;;;;5046745;28;20056;-59
2023/02/08 05:22:43;;;;;;;26.00;18.23;;;5.00;1.00;;;;;;5033058;28;20033;-58
2023/02/08 05:25:09;;;;;;;26.27;18.20;;;5.00;1.00;;;;;;5032974;28;20026;-59
2023/02/08 05:27:34;;;;;;;26.03;17.90;;;5.00;1.00;;;;;;5032859;28;20481;-59
2023/02/08 05:30:01;;;;;;;23.07;17.43;;;5.00;1.00;;;;;;5032634;28;20030;-59
2023/02/08 05:32:26;;;;;;;27.00;17.33;;;5.00;1.00;;;;;;5032749;28;20033;-58
2023/02/08 05:34:52;;;;;;;27.80;17.97;;;5.00;1.00;;;;;;5032702;28;20039;-59
2023/02/08 05:37:18;;;;;;;26.57;17.73;;;4.90;1.00;;;;;;5032508;28;20493;-59
2023/02/08 05:39:43;;;;;;;28.30;18.17;;;4.90;1.00;;;;;;5032465;28;20054;-59
2023/02/08 05:42:09;;;;;;;26.43;17.13;;;5.00;1.00;;;;;;5032305;28;20494;-59
2023/02/08 05:44:35;;;;;;;27.50;16.97;;;5.00;1.00;;;;;;5032342;28;20474;-59
2023/02/08 05:47:00;;;;;;;24.30;17.20;;;5.00;1.00;;;;;;5032163;28;20490;-59
2023/02/08 05:49:26;;;;;;;28.97;18.80;;;5.00;1.00;;;;;;5032369;28;20056;-59
2023/02/08 05:51:52;;;;;;;28.90;18.13;;;5.00;1.00;;;;;;5032144;28;20037;-59
2023/02/08 05:54:17;;;;;;;25.07;17.63;;;5.00;1.00;;;;;;5032234;28;20025;-58
2023/02/08 05:56:43;;;;;;;25.07;17.20;;;5.00;1.00;;;;;;5031945;28;20028;-59
2023/02/08 05:59:09;;;;;;;23.73;16.50;;;5.10;1.00;;;;;;5032113;28;20472;-59
2023/02/08 06:01:35;;;;;;;25.50;17.50;;;5.00;1.00;;;;;;5032213;28;20048;-59
2023/02/08 06:04:01;;;;;;;28.27;18.37;;;5.00;1.00;;;;;;5031824;28;20498;-59
2023/02/08 06:06:27;;;;;;;28.37;19.03;;;5.00;1.00;;;;;;5032354;28;20033;-59
2023/02/08 06:08:53;;;;;;;30.70;17.60;;;5.00;1.00;;;;;;5032544;28;20042;-59
2023/02/08 06:11:19;;;;;;;24.90;17.93;;;5.00;1.00;;;;;;5032139;28;20048;-58
2023/02/08 06:13:45;;;;;;;24.77;17.50;;;4.90;1.00;;;;;;5032249;28;20033;-58
2023/02/08 06:16:12;;;;;;;24.23;16.93;;;4.90;1.00;;;;;;5032526;28;20428;-59
2023/02/08 06:18:38;;;;;;;25.37;17.73;;;4.90;1.00;;;;;;5036449;28;20047;-59
2023/02/08 06:21:04;;;;;;;25.90;17.80;;;5.00;1.00;;;;;;5041612;28;20022;-59
2023/02/08 06:23:29;;;;;;;26.23;17.53;;;5.00;1.00;;;;;;5032125;28;20037;-59
2023/02/08 06:25:55;;;;;;;27.87;18.53;;;5.00;1.00;;;;;;5032072;28;20379;-59
2023/02/08 06:28:21;;;;;;;30.60;18.30;;;4.90;1.00;;;;;;5032214;28;20136;-59
2023/02/08 06:30:50;;;;;;;26.57;17.63;;;5.00;1.00;;;;;;5032009;28;20017;-59
2023/02/08 06:33:16;;;;;;;28.57;18.90;;;4.90;1.00;;;;;;5031970;28;20456;-59
2023/02/08 06:35:45;;;;;;;30.73;19.17;;;4.90;1.00;;;;;;5031623;28;20112;-59
2023/02/08 06:38:11;;;;;;;31.70;18.60;;;4.90;1.00;;;;;;5032034;28;20040;-59
2023/02/08 06:40:37;;;;;;;27.77;18.10;;;4.90;1.00;;;;;;5032155;28;20022;-59
2023/02/08 06:43:03;;;;;;;26.83;17.07;;;5.00;1.00;;;;;;5026554;28;20468;-59
2023/02/08 06:45:28;;;;;;;27.90;17.27;;;4.90;1.00;;;;;;5015827;28;20112;-59
2023/02/08 06:47:54;;;;;;;29.90;18.50;;;5.00;1.00;;;;;;5020162;28;20116;-59
2023/02/08 06:50:19;;;;;;;26.77;18.67;;;5.00;1.00;;;;;;5031815;28;20056;-59
2023/02/08 06:52:46;;;;;;;29.80;18.83;;;5.00;1.00;;;;;;5031698;28;20025;-59
2023/02/08 06:55:12;;;;;;;26.93;17.80;;;5.00;1.00;;;;;;5031837;28;20051;-59
2023/02/08 06:57:38;;;;;;;26.93;17.40;;;5.00;1.00;;;;;;5031834;28;20068;-59
2023/02/08 07:00:04;;;;;;;29.33;18.53;;;5.00;1.00;;;;;;5034058;28;20025;-59
2023/02/08 07:02:30;;;;;;;25.83;17.33;;;5.10;1.00;;;;;;5032148;28;20065;-59
2023/02/08 07:04:55;;;;;;;38.47;18.07;;;5.10;1.00;;;;;;5035172;28;20053;-59
2023/02/08 07:07:21;;;;;;;29.03;18.73;;;5.10;1.00;;;;;;5035209;28;20051;-59
2023/02/08 07:09:47;;;;;;;29.57;18.57;;;5.10;1.00;;;;;;5035161;28;20022;-59
2023/02/08 07:12:12;;;;;;;28.77;18.47;;;5.10;1.00;;;;;;5035393;28;20025;-58
2023/02/08 07:14:40;;;;;;;26.13;17.60;;;5.10;1.00;;;;;;5033873;28;20021;-59
2023/02/08 07:17:07;;;;;;;27.67;18.00;;;5.10;1.00;;;;;;5035228;28;20021;-59
2023/02/08 07:19:33;;;;;;;28.80;18.30;;;5.10;1.00;;;;;;5046942;28;20150;-58
2023/02/08 07:22:06;;;;;;;31.93;18.57;;;5.00;1.00;;;;;;5037215;28;20045;-59
2023/02/08 07:24:36;;;;;;;34.57;18.90;;;5.00;1.00;;;;;;5035232;28;20026;-59
2023/02/08 07:27:02;;;;;;;31.50;19.00;;;5.20;1.00;;;;;;5034918;28;20026;-58
2023/02/08 07:29:29;;;;;;;30.77;18.80;;;5.10;1.00;;;;;;5034984;28;20061;-59
2023/02/08 07:31:55;;;;;;;29.20;19.07;;;5.10;1.00;;;;;;5034879;28;20028;-59
2023/02/08 07:34:20;;;;;;;28.00;18.33;;;5.10;1.00;;;;;;5034801;28;20029;-59
2023/02/08 07:36:48;;;;;;;26.47;18.20;;;5.10;1.00;;;;;;5034768;28;20092;-58
2023/02/08 07:39:14;;;;;;;32.33;19.07;;;5.00;1.00;;;;;;5034554;28;20029;-58
2023/02/08 07:41:39;;;;;;;26.47;19.10;;;5.20;1.00;;;;;;5034989;28;20022;-57
2023/02/08 07:44:06;;;;;;;28.70;18.93;;;5.20;1.00;;;;;;5034604;28;20025;-58
2023/02/08 07:46:31;;;;;;;33.10;18.50;;;5.10;1.00;;;;;;5034677;28;20053;-59
2023/02/08 07:48:57;;;;;;;33.57;19.80;;;5.20;1.00;;;;;;5034539;28;20123;-59
2023/02/08 07:51:23;;;;;;;34.33;18.87;;;5.30;1.00;;;;;;5034523;28;20368;-59
2023/02/08 07:53:49;;;;;;;30.13;18.97;;;5.30;1.00;;;;;;5034531;28;20110;-59
2023/02/08 07:56:15;;;;;;;30.67;18.87;;;5.30;1.00;;;;;;5030714;28;20061;-59
2023/02/08 08:02:03;;;;;;;29.53;18.00;;;5.30;1.00;;;;;;5019812;28;20454;-57
2023/02/08 08:04:28;;;;;;;28.73;17.97;;;5.20;1.00;;;;;;5031864;28;20045;-58
2023/02/08 08:06:54;;;;;;;26.97;18.10;;;5.30;1.00;;;;;;5033780;28;20040;-58
2023/02/08 08:09:20;;;;;;;28.07;17.67;;;5.30;1.00;;;;;;5045089;28;20048;-58
2023/02/08 08:11:45;;;;;;;22.43;14.27;;;5.40;1.00;;;;;;5036060;28;20512;-55
2023/02/08 08:14:11;;;;;;;15.33;10.80;;;5.50;1.00;;;;;;5041908;28;20028;-58
2023/02/08 08:16:37;;;;;;;13.33;8.90;;;5.50;1.00;;;;;;5039956;28;20104;-58
2023/02/08 08:19:03;;;;;;;13.73;8.93;;;5.50;1.00;;;;;;5051595;28;20451;-56
2023/02/08 08:21:29;;;;;;;14.57;9.70;;;5.50;1.00;;;;;;5039794;28;20029;-55
2023/02/08 08:23:54;;;;;;;14.43;9.50;;;5.60;1.00;;;;;;5033876;28;20026;-56
2023/02/08 08:26:21;;;;;;;14.47;9.43;;;5.60;1.00;;;;;;5032554;28;20382;-57
2023/02/08 08:28:47;;;;;;;13.87;9.23;;;5.50;1.00;;;;;;5033623;28;20068;-56
2023/02/08 08:31:15;;;;;;;12.40;8.80;;;5.60;1.00;;;;;;5033941;28;20217;-57
2023/02/08 08:33:41;;;;;;;12.43;8.87;;;5.50;1.00;;;;;;5033726;28;20439;-57
2023/02/08 08:36:08;;;;;;;12.27;9.20;;;5.60;1.00;;;;;;5032477;28;20026;-57
2023/02/08 08:38:34;;;;;;;14.60;9.93;;;5.60;1.00;;;;;;5032358;28;20025;-59
2023/02/08 08:40:59;;;;;;;19.00;9.47;;;5.60;1.00;;;;;;5033712;28;20386;-58
2023/02/08 08:43:25;;;;;;;13.47;9.17;;;5.50;1.00;;;;;;5033643;28;20036;-58
2023/02/08 08:45:50;;;;;;;13.33;8.87;;;5.60;1.00;;;;;;5033549;28;20068;-59
2023/02/08 08:48:16;;;;;;;13.63;8.70;;;5.60;1.00;;;;;;5033617;28;20542;-57
2023/02/08 08:50:42;;;;;;;13.77;8.43;;;5.60;1.00;;;;;;5033721;28;20032;-57
2023/02/08 08:53:08;;;;;;;13.93;9.40;;;5.50;1.00;;;;;;5033620;28;20033;-56
2023/02/08 08:55:34;;;;;;;14.53;9.50;;;5.70;1.00;;;;;;5033468;28;20068;-56
2023/02/08 08:57:59;;;;;;;16.70;9.10;;;5.60;1.00;;;;;;5033567;28;20029;-58
2023/02/08 09:00:26;;;;;;;18.80;10.07;;;5.70;1.00;;;;;;5033574;28;20055;-57
2023/02/08 09:02:51;;;;;;;16.37;9.03;;;5.70;1.00;;;;;;5032977;28;20113;-57
2023/02/08 09:05:17;;;;;;;18.63;9.17;;;5.70;1.00;;;;;;5032700;28;20056;-57
2023/02/08 09:07:43;;;;;;;14.73;9.43;;;5.70;1.00;;;;;;5029764;28;20064;-57
2023/02/08 09:10:08;;;;;;;15.63;9.13;;;5.80;1.00;;;;;;5033221;28;20033;-58
2023/02/08 09:12:34;;;;;;;13.07;8.93;;;5.70;1.00;;;;;;5033040;28;20522;-58
2023/02/08 09:15:00;;;;;;;15.23;8.33;;;5.70;1.00;;;;;;5029868;28;20071;-57
2023/02/08 09:17:25;;;;;;;11.53;7.07;;;5.80;1.00;;;;;;5032973;28;20089;-57
2023/02/08 09:19:51;;;;;;;13.43;7.80;;;5.90;1.00;;;;;;5046732;28;20103;-57
2023/02/08 09:22:17;;;;;;;11.60;7.77;;;5.90;1.00;;;;;;5032497;28;20167;-56
2023/02/08 09:24:43;;;;;;;13.53;8.20;;;5.90;1.00;;;;;;5033100;28;20043;-56
2023/02/08 09:27:09;;;;;;;13.60;8.47;;;5.90;1.00;;;;;;5032616;28;20089;-57
2023/02/08 09:29:34;;;;;;;16.87;11.20;;;5.90;1.00;;;;;;5025454;28;20121;-60
2023/02/08 09:32:00;;;;;;;18.00;10.50;;;5.80;1.00;;;;;;5027777;28;20059;-60
2023/02/08 09:34:26;;;;;;;18.40;9.57;;;5.80;1.00;;;;;;5032353;28;20471;-59
2023/02/08 09:36:51;;;;;;;17.23;10.40;;;5.90;1.00;;;;;;5032233;28;20021;-59
2023/02/08 09:39:22;;;;;;;16.93;10.50;;;5.90;1.00;;;;;;5032412;28;20021;-59
2023/02/08 09:42:19;;;;;;;16.13;10.90;;;6.00;1.00;;;;;;5032867;28;20025;-55
2023/02/08 09:44:59;;;;;;;20.03;11.27;;;6.00;1.00;;;;;;5028792;28;20411;-56
2023/02/08 09:47:33;;;;;;;17.90;11.27;;;6.00;1.00;;;;;;5032716;28;20037;-56
2023/02/08 09:50:31;;;;;;;19.23;11.07;;;6.10;1.00;;;;;;5032716;28;20053;-56
2023/02/08 09:53:02;;;;;;;15.97;10.50;;;6.10;1.00;;;;;;5032467;28;20386;-55
2023/02/08 09:55:35;;;;;;;21.00;11.67;;;6.10;1.00;;;;;;5019238;28;20116;-55
2023/02/08 09:58:07;;;;;;;16.70;10.30;;;6.20;1.00;;;;;;5032377;28;20121;-53
2023/02/08 10:00:42;;;;;;;15.03;10.73;;;6.00;1.00;;;;;;5021622;28;20134;-54
2023/02/08 10:03:43;;;;;;;18.73;11.23;;;6.10;1.00;;;;;;5032355;28;20052;-57
2023/02/08 10:06:16;;;;;;;14.27;9.23;;;6.20;1.00;;;;;;5028308;28;20056;-56
2023/02/08 10:08:43;;;;;;;19.40;10.73;;;6.20;1.00;;;;;;5032015;28;20037;-56
2023/02/08 10:11:30;;;;;;;14.53;9.50;;;6.20;1.00;;;;;;5032129;28;20026;-55
2023/02/08 10:14:18;;;;;;;13.60;9.53;;;6.20;1.00;;;;;;5020854;28;20013;-52
2023/02/08 10:17:05;;;;;;;13.60;9.67;;;6.20;1.00;;;;;;5028055;28;20041;-56
2023/02/08 10:19:59;;;;;;;17.13;11.73;;;6.20;1.00;;;;;;5043820;28;20493;-55
2023/02/08 10:22:24;;;;;;;16.93;10.83;;;6.30;1.00;;;;;;5019808;28;20026;-51
2023/02/08 10:25:10;;;;;;;16.63;10.07;;;6.30;1.00;;;;;;5032145;28;20485;-56
2023/02/08 10:27:55;;;;;;;18.47;10.50;;;6.30;1.00;;;;;;5032143;28;20029;-53
2023/02/08 10:30:46;;;;;;;14.30;9.90;;;6.40;1.00;;;;;;5032034;28;20033;-54
2023/02/08 10:33:19;;;;;;;12.77;10.87;;;6.20;1.00;;;;;;5031731;28;20380;-55
2023/02/08 10:35:48;;;;;;;15.60;10.47;;;6.30;1.00;;;;;;5031604;28;20048;-54
2023/02/08 10:38:28;;;;;;;15.97;11.30;;;6.30;1.00;;;;;;5032511;28;20485;-56
2023/02/08 10:40:58;;;;;;;14.83;10.30;;;6.40;1.00;;;;;;5030556;28;20383;-53
2023/02/08 10:43:36;;;;;;;18.03;10.80;;;6.40;1.00;;;;;;5032231;28;20033;-53
2023/02/08 10:46:13;;;;;;;17.43;11.33;;;6.50;1.00;;;;;;5031606;28;20021;-53
2023/02/08 10:49:07;;;;;;;18.30;11.57;;;6.60;1.00;;;;;;5032081;28;20034;-53
2023/02/08 10:51:33;;;;;;;15.20;10.87;;;6.50;1.00;;;;;;5018920;28;20120;-54
2023/02/08 10:53:59;;;;;;;17.87;11.23;;;6.60;1.00;;;;;;5031899;28;20018;-53
2023/02/08 10:56:42;;;;;;;19.40;12.50;;;6.70;1.00;;;;;;5031736;28;20498;-52
2023/02/08 10:59:22;;;;;;;23.63;11.90;;;6.80;1.00;;;;;;5031921;28;20062;-52
2023/02/08 11:01:49;;;;;;;16.67;11.27;;;6.70;1.00;;;;;;5012572;28;20025;-56
2023/02/08 11:04:15;;;;;;;14.47;10.33;;;6.50;1.00;;;;;;5025123;28;20050;-56
2023/02/08 11:06:43;;;;;;;14.43;9.23;;;6.50;1.00;;;;;;5028132;28;20018;-55
2023/02/08 11:09:38;;;;;;;17.10;9.90;;;6.60;1.00;;;;;;5031752;28;20033;-54
2023/02/08 11:12:04;;;;;;;15.38;10.05;;;6.80;1.00;;;;;;5022161;28;20068;-57
2023/02/08 11:14:38;;;;;;;15.53;10.87;;;6.80;1.00;;;;;;5031681;28;20049;-53
2023/02/08 11:17:21;;;;;;;16.73;10.38;;;6.80;1.00;;;;;;5031591;28;20025;-54
2023/02/08 11:19:49;;;;;;;18.40;11.03;;;6.80;1.00;;;;;;5045347;28;20079;-55
2023/02/08 11:22:18;;;;;;;15.10;10.37;;;6.90;1.00;;;;;;5018050;28;20552;-53
2023/02/08 11:24:49;;;;;;;918.73;117.70;;;6.90;1.00;;;;;;5031578;28;20391;-55
2023/02/08 11:27:27;;;;;;;18.13;11.53;;;6.90;1.00;;;;;;5031087;28;20105;-54
2023/02/08 11:30:32;;;;;;;19.30;11.00;;;6.90;1.00;;;;;;5031382;28;20037;-57
2023/02/08 11:33:17;;;;;;;20.40;11.20;;;7.00;1.00;;;;;;5022065;28;20030;-55
2023/02/08 11:35:52;;;;;;;12.60;9.13;;;7.00;1.00;;;;;;5031185;28;20033;-55
2023/02/08 11:38:19;;;;;;;16.70;9.63;;;6.90;1.00;;;;;;5031511;28;20363;-55
2023/02/08 11:41:14;;;;;;;12.80;9.30;;;6.90;1.00;;;;;;5031523;28;20425;-55
2023/02/08 11:43:40;;;;;;;;;;;7.10;1.00;;;;;;5021426;28;20033;-55
2023/02/08 11:46:06;;;;;;;16.07;10.23;;;7.00;1.00;;;;;;5034572;28;19905;-56
2023/02/08 11:48:42;;;;;;;16.70;10.83;;;7.10;1.00;;;;;;5034906;28;20044;-55
2023/02/08 11:51:11;;;;;;;14.47;9.40;;;7.10;1.00;;;;;;5034874;28;20060;-57
2023/02/08 11:53:39;;;;;;;17.87;10.03;;;7.20;1.00;;;;;;5034781;28;20029;-56
2023/02/08 11:56:18;;;;;;;14.60;9.57;;;7.10;1.00;;;;;;5034508;28;20025;-54
2023/02/08 11:59:11;;;;;;;14.47;10.03;;;7.10;1.00;;;;;;5034649;28;20067;-55
2023/02/08 12:01:39;;;;;;;19.40;12.23;;;7.20;1.00;;;;;;5033381;28;20025;-56
2023/02/08 12:04:16;;;;;;;13.00;10.13;;;7.20;1.00;;;;;;5034279;28;20468;-55
2023/02/08 12:07:19;;;;;;;17.13;11.13;;;7.30;1.00;;;;;;5034328;28;20056;-56
2023/02/08 12:10:29;;;;;;;19.30;10.93;;;7.30;1.00;;;;;;5034402;28;20541;-56
2023/02/08 12:13:29;;;;;;;18.87;10.80;;;7.30;1.00;;;;;;5031834;28;20509;-57
2023/02/08 12:16:39;;;;;;;18.37;11.37;;;7.30;1.00;;;;;;5024418;28;20049;-56
2023/02/08 12:19:13;;;;;;;13.40;9.90;;;7.40;1.00;;;;;;5029184;28;20055;-57
2023/02/08 12:21:43;;;;;;;14.07;9.95;;;7.40;1.00;;;;;;5039034;28;20052;-57
2023/02/08 12:24:24;;;;;;;16.57;10.37;;;7.50;1.00;;;;;;5034214;28;20026;-56
2023/02/08 12:26:57;;;;;;;21.53;12.47;;;7.50;1.00;;;;;;5033960;28;20113;-56
2023/02/08 12:29:40;;;;;;;15.67;10.30;;;7.50;1.00;;;;;;5034164;28;20083;-57
2023/02/08 12:32:22;;;;;;;15.67;10.63;;;7.50;1.00;;;;;;5034236;28;20387;-56
2023/02/08 12:35:33;;;;;;;16.73;13.90;;;7.60;1.00;;;;;;5029856;28;20421;-56
2023/02/08 12:41:21;;;;;;;16.23;11.27;;;7.70;1.00;;;;;;5022581;28;20425;-56
2023/02/08 12:43:57;;;;;;;;;;;7.70;1.00;;;;;;5034302;28;20469;-54
2023/02/08 12:47:01;;;;;;;20.80;11.60;;;7.70;1.00;;;;;;5033780;28;19982;-56
2023/02/08 12:49:34;;;;;;;17.27;11.77;;;7.60;1.00;;;;;;5037643;28;20124;-54
2023/02/08 12:52:06;;;;;;;20.17;11.93;;;7.60;1.00;;;;;;5051508;28;20033;-56
2023/02/08 12:54:43;;;;;;;17.13;12.93;;;7.70;1.00;;;;;;5041552;28;20037;-56
2023/02/08 12:57:15;;;;;;;17.57;11.33;;;7.90;1.00;;;;;;5033148;28;20017;-55
2023/02/08 12:59:54;;;;;;;20.70;13.63;;;7.90;1.00;;;;;;5027546;28;20045;-56
2023/02/08 13:02:31;;;;;;;18.23;12.87;;;7.90;1.00;;;;;;5033417;28;20540;-56
2023/02/08 13:05:02;;;;;;;15.23;11.03;;;7.90;1.00;;;;;;5031683;28;20045;-56
2023/02/08 13:07:43;;;;;;;16.13;11.57;;;8.00;1.00;;;;;;5028251;28;20030;-55
2023/02/08 13:10:38;;;;;;;17.97;12.33;;;8.10;1.00;;;;;;5033400;28;20102;-54
2023/02/08 13:13:21;;;;;;;16.33;11.85;;;8.10;1.00;;;;;;5033199;28;20093;-54
2023/02/08 13:16:08;;;;;;;23.67;13.10;;;8.10;1.00;;;;;;5036076;28;20622;-57
2023/02/08 13:18:54;;;;;;;16.43;11.47;;;8.00;1.00;;;;;;5052144;28;20118;-57
2023/02/08 13:21:40;;;;;;;19.63;12.70;;;8.10;1.00;;;;;;5047911;28;20025;-53